sensor_id;sensor_type;location;lat;lon;timestamp;temperature;humidity
43991;DHT22;29654;50.784;20.604;2023-09-08T00:02:24;21.00;50.60
43991;DHT22;29654;50.784;20.604;2023-09-08T00:07:27;21.00;50.80
43991;DHT22;29654;50.784;20.604;2023-09-08T00:12:30;21.00;50.80
43991;DHT22;29654;50.784;20.604;2023-09-08T00:17:33;21.00;51.30
43991;DHT22;29654;50.784;20.604;2023-09-08T00:22:37;20.90;51.00
43991;DHT22;29654;50.784;20.604;2023-09-08T00:27:41;21.00;51.10
43991;DHT22;29654;50.784;20.604;2023-09-08T00:32:44;20.90;51.10
43991;DHT22;29654;50.784;20.604;2023-09-08T00:37:46;20.90;51.00
43991;DHT22;29654;50.784;20.604;2023-09-08T00:42:50;20.90;51.00
43991;DHT22;29654;50.784;20.604;2023-09-08T00:47:53;20.90;51.20
43991;DHT22;29654;50.784;20.604;2023-09-08T00:52:55;20.90;51.10
43991;DHT22;29654;50.784;20.604;2023-09-08T00:58:00;20.80;51.30
43991;DHT22;29654;50.784;20.604;2023-09-08T01:03:03;20.80;51.30
43991;DHT22;29654;50.784;20.604;2023-09-08T01:08:07;20.80;51.30
43991;DHT22;29654;50.784;20.604;2023-09-08T01:13:11;20.80;51.30
43991;DHT22;29654;50.784;20.604;2023-09-08T01:18:14;20.80;51.60
43991;DHT22;29654;50.784;20.604;2023-09-08T01:23:19;20.80;51.60
43991;DHT22;29654;50.784;20.604;2023-09-08T01:28:26;20.80;51.90
43991;DHT22;29654;50.784;20.604;2023-09-08T01:33:29;20.80;52.00
43991;DHT22;29654;50.784;20.604;2023-09-08T01:38:32;20.80;51.80
43991;DHT22;29654;50.784;20.604;2023-09-08T01:43:35;20.80;51.70
43991;DHT22;29654;50.784;20.604;2023-09-08T01:48:38;20.80;51.70
43991;DHT22;29654;50.784;20.604;2023-09-08T01:53:40;20.80;51.60
43991;DHT22;29654;50.784;20.604;2023-09-08T01:58:46;20.80;51.50
43991;DHT22;29654;50.784;20.604;2023-09-08T02:03:48;20.70;51.40
43991;DHT22;29654;50.784;20.604;2023-09-08T02:08:51;20.70;51.30
43991;DHT22;29654;50.784;20.604;2023-09-08T02:13:55;20.60;51.30
43991;DHT22;29654;50.784;20.604;2023-09-08T02:18:57;20.60;51.50
43991;DHT22;29654;50.784;20.604;2023-09-08T02:24:01;20.50;51.40
43991;DHT22;29654;50.784;20.604;2023-09-08T02:29:05;20.40;51.30
43991;DHT22;29654;50.784;20.604;2023-09-08T02:34:08;20.40;51.50
43991;DHT22;29654;50.784;20.604;2023-09-08T02:39:12;20.40;51.40
43991;DHT22;29654;50.784;20.604;2023-09-08T02:44:16;20.30;51.40
43991;DHT22;29654;50.784;20.604;2023-09-08T02:49:21;20.20;51.50
43991;DHT22;29654;50.784;20.604;2023-09-08T02:54:23;20.20;51.50
43991;DHT22;29654;50.784;20.604;2023-09-08T02:59:27;20.10;51.50
43991;DHT22;29654;50.784;20.604;2023-09-08T03:04:29;20.10;51.60
43991;DHT22;29654;50.784;20.604;2023-09-08T03:09:33;20.10;51.60
43991;DHT22;29654;50.784;20.604;2023-09-08T03:14:39;20.00;51.80
43991;DHT22;29654;50.784;20.604;2023-09-08T03:19:45;20.00;51.90
43991;DHT22;29654;50.784;20.604;2023-09-08T03:24:49;20.00;51.90
43991;DHT22;29654;50.784;20.604;2023-09-08T03:29:52;19.90;51.70
43991;DHT22;29654;50.784;20.604;2023-09-08T03:34:55;19.90;51.90
43991;DHT22;29654;50.784;20.604;2023-09-08T03:39:58;19.90;51.90
43991;DHT22;29654;50.784;20.604;2023-09-08T03:45:02;19.90;52.00
43991;DHT22;29654;50.784;20.604;2023-09-08T03:50:06;19.80;52.30
43991;DHT22;29654;50.784;20.604;2023-09-08T03:55:11;19.80;52.20
43991;DHT22;29654;50.784;20.604;2023-09-08T04:00:15;19.80;52.10
43991;DHT22;29654;50.784;20.604;2023-09-08T04:05:22;19.80;52.30
43991;DHT22;29654;50.784;20.604;2023-09-08T04:10:25;19.80;52.20
43991;DHT22;29654;50.784;20.604;2023-09-08T04:15:29;19.80;52.30
43991;DHT22;29654;50.784;20.604;2023-09-08T04:20:33;19.80;52.40
43991;DHT22;29654;50.784;20.604;2023-09-08T04:25:36;19.80;52.40
43991;DHT22;29654;50.784;20.604;2023-09-08T04:30:40;19.80;52.40
43991;DHT22;29654;50.784;20.604;2023-09-08T04:35:43;19.80;52.70
43991;DHT22;29654;50.784;20.604;2023-09-08T04:40:46;19.80;52.60
43991;DHT22;29654;50.784;20.604;2023-09-08T04:45:50;19.80;52.80
43991;DHT22;29654;50.784;20.604;2023-09-08T04:50:53;19.90;53.00
43991;DHT22;29654;50.784;20.604;2023-09-08T04:55:56;20.10;53.20
43991;DHT22;29654;50.784;20.604;2023-09-08T05:01:00;20.10;53.40
43991;DHT22;29654;50.784;20.604;2023-09-08T05:06:03;20.30;53.90
43991;DHT22;29654;50.784;20.604;2023-09-08T05:11:06;20.40;54.00
43991;DHT22;29654;50.784;20.604;2023-09-08T05:16:10;20.60;54.30
43991;DHT22;29654;50.784;20.604;2023-09-08T05:21:16;20.90;54.80
43991;DHT22;29654;50.784;20.604;2023-09-08T05:26:20;21.10;54.70
43991;DHT22;29654;50.784;20.604;2023-09-08T05:31:24;21.40;54.70
43991;DHT22;29654;50.784;20.604;2023-09-08T05:36:27;21.70;55.00
43991;DHT22;29654;50.784;20.604;2023-09-08T05:41:31;21.90;54.70
43991;DHT22;29654;50.784;20.604;2023-09-08T05:46:37;22.20;54.60
43991;DHT22;29654;50.784;20.604;2023-09-08T05:51:40;22.60;54.60
43991;DHT22;29654;50.784;20.604;2023-09-08T05:56:43;22.90;54.40
43991;DHT22;29654;50.784;20.604;2023-09-08T06:01:48;23.20;54.00
43991;DHT22;29654;50.784;20.604;2023-09-08T06:06:51;23.50;53.90
43991;DHT22;29654;50.784;20.604;2023-09-08T06:11:55;23.80;53.50
43991;DHT22;29654;50.784;20.604;2023-09-08T06:16:59;24.00;53.00
43991;DHT22;29654;50.784;20.604;2023-09-08T06:22:02;24.20;52.60
43991;DHT22;29654;50.784;20.604;2023-09-08T06:27:06;24.30;52.40
43991;DHT22;29654;50.784;20.604;2023-09-08T06:32:11;24.50;52.30
43991;DHT22;29654;50.784;20.604;2023-09-08T06:37:16;24.70;52.30
43991;DHT22;29654;50.784;20.604;2023-09-08T06:42:19;24.80;51.90
43991;DHT22;29654;50.784;20.604;2023-09-08T06:47:31;25.00;51.90
43991;DHT22;29654;50.784;20.604;2023-09-08T06:52:34;25.10;51.70
43991;DHT22;29654;50.784;20.604;2023-09-08T06:57:38;25.30;51.70
43991;DHT22;29654;50.784;20.604;2023-09-08T07:02:42;25.50;51.60
43991;DHT22;29654;50.784;20.604;2023-09-08T07:07:45;25.70;51.40
43991;DHT22;29654;50.784;20.604;2023-09-08T07:12:49;25.90;51.40
43991;DHT22;29654;50.784;20.604;2023-09-08T07:17:53;26.10;51.20
43991;DHT22;29654;50.784;20.604;2023-09-08T07:22:56;26.30;50.90
43991;DHT22;29654;50.784;20.604;2023-09-08T07:27:59;26.40;50.80
43991;DHT22;29654;50.784;20.604;2023-09-08T07:33:04;26.70;50.70
43991;DHT22;29654;50.784;20.604;2023-09-08T07:38:07;26.90;50.50
43991;DHT22;29654;50.784;20.604;2023-09-08T07:43:10;27.00;50.30
43991;DHT22;29654;50.784;20.604;2023-09-08T07:48:14;27.30;50.20
43991;DHT22;29654;50.784;20.604;2023-09-08T07:53:16;27.40;49.50
43991;DHT22;29654;50.784;20.604;2023-09-08T07:58:19;27.60;49.20
43991;DHT22;29654;50.784;20.604;2023-09-08T08:03:23;27.80;49.20
43991;DHT22;29654;50.784;20.604;2023-09-08T08:08:26;28.00;49.10
43991;DHT22;29654;50.784;20.604;2023-09-08T08:13:28;28.10;48.60
43991;DHT22;29654;50.784;20.604;2023-09-08T08:18:32;28.30;48.00
43991;DHT22;29654;50.784;20.604;2023-09-08T08:23:35;28.50;47.60
43991;DHT22;29654;50.784;20.604;2023-09-08T08:28:39;28.70;47.50
43991;DHT22;29654;50.784;20.604;2023-09-08T08:33:43;28.80;47.20
43991;DHT22;29654;50.784;20.604;2023-09-08T08:38:45;28.90;46.70
43991;DHT22;29654;50.784;20.604;2023-09-08T08:43:48;29.10;46.60
43991;DHT22;29654;50.784;20.604;2023-09-08T08:48:54;29.20;46.40
43991;DHT22;29654;50.784;20.604;2023-09-08T08:53:57;29.30;46.00
43991;DHT22;29654;50.784;20.604;2023-09-08T08:59:01;29.40;46.00
43991;DHT22;29654;50.784;20.604;2023-09-08T09:04:06;29.50;45.60
43991;DHT22;29654;50.784;20.604;2023-09-08T09:09:10;29.60;44.60
43991;DHT22;29654;50.784;20.604;2023-09-08T09:14:13;29.70;45.10
43991;DHT22;29654;50.784;20.604;2023-09-08T09:19:20;29.70;44.90
43991;DHT22;29654;50.784;20.604;2023-09-08T09:24:30;29.90;43.80
43991;DHT22;29654;50.784;20.604;2023-09-08T09:29:35;29.90;44.10
43991;DHT22;29654;50.784;20.604;2023-09-08T09:34:52;30.00;44.00
43991;DHT22;29654;50.784;20.604;2023-09-08T09:39:55;30.00;43.70
43991;DHT22;29654;50.784;20.604;2023-09-08T09:45:00;30.10;43.70
43991;DHT22;29654;50.784;20.604;2023-09-08T09:50:05;30.20;42.60
43991;DHT22;29654;50.784;20.604;2023-09-08T09:55:09;30.30;42.70
43991;DHT22;29654;50.784;20.604;2023-09-08T10:00:12;30.30;42.70
43991;DHT22;29654;50.784;20.604;2023-09-08T10:05:19;30.30;42.40
43991;DHT22;29654;50.784;20.604;2023-09-08T10:10:22;30.40;42.20
43991;DHT22;29654;50.784;20.604;2023-09-08T10:15:25;30.40;42.20
43991;DHT22;29654;50.784;20.604;2023-09-08T10:20:30;30.50;41.80
43991;DHT22;29654;50.784;20.604;2023-09-08T10:25:37;30.60;41.20
43991;DHT22;29654;50.784;20.604;2023-09-08T10:30:44;30.70;41.30
43991;DHT22;29654;50.784;20.604;2023-09-08T10:35:49;30.90;41.70
43991;DHT22;29654;50.784;20.604;2023-09-08T10:40:52;31.10;40.90
43991;DHT22;29654;50.784;20.604;2023-09-08T10:45:57;31.20;41.10
43991;DHT22;29654;50.784;20.604;2023-09-08T10:51:05;31.40;40.00
43991;DHT22;29654;50.784;20.604;2023-09-08T10:56:09;31.50;39.60
43991;DHT22;29654;50.784;20.604;2023-09-08T11:01:15;31.50;39.80
43991;DHT22;29654;50.784;20.604;2023-09-08T11:06:20;31.60;39.60
43991;DHT22;29654;50.784;20.604;2023-09-08T11:11:24;31.70;39.10
43991;DHT22;29654;50.784;20.604;2023-09-08T11:16:27;31.80;39.40
43991;DHT22;29654;50.784;20.604;2023-09-08T11:21:33;31.90;38.90
43991;DHT22;29654;50.784;20.604;2023-09-08T11:26:37;32.00;39.10
43991;DHT22;29654;50.784;20.604;2023-09-08T11:31:39;32.10;38.60
43991;DHT22;29654;50.784;20.604;2023-09-08T11:36:44;32.20;39.10
43991;DHT22;29654;50.784;20.604;2023-09-08T11:41:46;32.20;37.70
43991;DHT22;29654;50.784;20.604;2023-09-08T11:46:49;32.20;38.10
43991;DHT22;29654;50.784;20.604;2023-09-08T11:51:53;32.20;38.10
43991;DHT22;29654;50.784;20.604;2023-09-08T11:56:58;32.30;37.60
43991;DHT22;29654;50.784;20.604;2023-09-08T12:02:02;32.40;37.70
43991;DHT22;29654;50.784;20.604;2023-09-08T12:07:06;32.40;37.40
43991;DHT22;29654;50.784;20.604;2023-09-08T12:12:11;32.40;36.90
43991;DHT22;29654;50.784;20.604;2023-09-08T12:17:14;32.40;37.10
43991;DHT22;29654;50.784;20.604;2023-09-08T12:22:19;32.40;36.90
43991;DHT22;29654;50.784;20.604;2023-09-08T12:27:23;32.40;36.80
43991;DHT22;29654;50.784;20.604;2023-09-08T12:32:29;32.40;37.00
43991;DHT22;29654;50.784;20.604;2023-09-08T12:37:34;32.40;37.00
43991;DHT22;29654;50.784;20.604;2023-09-08T12:42:37;32.50;36.70
43991;DHT22;29654;50.784;20.604;2023-09-08T12:47:40;32.50;36.90
43991;DHT22;29654;50.784;20.604;2023-09-08T12:52:44;32.60;36.90
43991;DHT22;29654;50.784;20.604;2023-09-08T12:57:47;32.70;36.20
43991;DHT22;29654;50.784;20.604;2023-09-08T13:02:50;32.70;36.50
43991;DHT22;29654;50.784;20.604;2023-09-08T13:07:54;32.70;36.70
43991;DHT22;29654;50.784;20.604;2023-09-08T13:12:57;32.70;36.60
43991;DHT22;29654;50.784;20.604;2023-09-08T13:18:00;32.90;36.60
43991;DHT22;29654;50.784;20.604;2023-09-08T13:23:04;32.90;36.30
43991;DHT22;29654;50.784;20.604;2023-09-08T13:28:06;33.00;36.30
43991;DHT22;29654;50.784;20.604;2023-09-08T13:33:09;33.00;36.00
43991;DHT22;29654;50.784;20.604;2023-09-08T13:38:13;33.00;35.90
43991;DHT22;29654;50.784;20.604;2023-09-08T13:43:15;33.00;35.90
43991;DHT22;29654;50.784;20.604;2023-09-08T13:48:18;33.00;36.20
43991;DHT22;29654;50.784;20.604;2023-09-08T13:53:22;33.00;36.00
43991;DHT22;29654;50.784;20.604;2023-09-08T13:58:25;33.10;35.60
43991;DHT22;29654;50.784;20.604;2023-09-08T14:03:27;33.10;35.60
43991;DHT22;29654;50.784;20.604;2023-09-08T14:08:31;33.00;35.30
43991;DHT22;29654;50.784;20.604;2023-09-08T14:13:35;33.00;35.20
43991;DHT22;29654;50.784;20.604;2023-09-08T14:18:37;32.90;35.60
43991;DHT22;29654;50.784;20.604;2023-09-08T14:23:42;33.00;35.50
43991;DHT22;29654;50.784;20.604;2023-09-08T14:28:45;32.90;35.20
43991;DHT22;29654;50.784;20.604;2023-09-08T14:33:48;32.90;35.00
43991;DHT22;29654;50.784;20.604;2023-09-08T14:38:52;33.10;33.80
43991;DHT22;29654;50.784;20.604;2023-09-08T14:43:56;32.90;34.60
43991;DHT22;29654;50.784;20.604;2023-09-08T14:48:59;32.80;35.00
43991;DHT22;29654;50.784;20.604;2023-09-08T14:54:04;32.80;34.90
43991;DHT22;29654;50.784;20.604;2023-09-08T14:59:07;32.70;34.70
43991;DHT22;29654;50.784;20.604;2023-09-08T15:04:10;32.70;35.20
43991;DHT22;29654;50.784;20.604;2023-09-08T15:09:14;32.70;34.90
43991;DHT22;29654;50.784;20.604;2023-09-08T15:14:16;32.70;35.00
43991;DHT22;29654;50.784;20.604;2023-09-08T15:19:19;32.60;35.20
43991;DHT22;29654;50.784;20.604;2023-09-08T15:24:23;32.60;35.10
43991;DHT22;29654;50.784;20.604;2023-09-08T15:29:25;32.60;35.10
43991;DHT22;29654;50.784;20.604;2023-09-08T15:34:28;32.60;35.30
43991;DHT22;29654;50.784;20.604;2023-09-08T15:39:32;32.50;35.30
43991;DHT22;29654;50.784;20.604;2023-09-08T15:44:35;32.50;35.40
43991;DHT22;29654;50.784;20.604;2023-09-08T15:49:37;32.40;35.70
43991;DHT22;29654;50.784;20.604;2023-09-08T15:54:42;32.40;35.60
43991;DHT22;29654;50.784;20.604;2023-09-08T15:59:45;32.40;35.70
43991;DHT22;29654;50.784;20.604;2023-09-08T16:04:47;32.30;35.90
43991;DHT22;29654;50.784;20.604;2023-09-08T16:09:51;32.20;36.10
43991;DHT22;29654;50.784;20.604;2023-09-08T16:14:54;32.10;36.30
43991;DHT22;29654;50.784;20.604;2023-09-08T16:19:57;32.00;36.60
43991;DHT22;29654;50.784;20.604;2023-09-08T16:25:01;31.80;36.90
43991;DHT22;29654;50.784;20.604;2023-09-08T16:30:05;31.70;37.30
43991;DHT22;29654;50.784;20.604;2023-09-08T16:35:08;31.60;37.30
43991;DHT22;29654;50.784;20.604;2023-09-08T16:40:12;31.40;37.50
43991;DHT22;29654;50.784;20.604;2023-09-08T16:45:15;31.20;37.80
43991;DHT22;29654;50.784;20.604;2023-09-08T16:50:18;30.90;38.00
43991;DHT22;29654;50.784;20.604;2023-09-08T16:55:22;30.70;38.20
43991;DHT22;29654;50.784;20.604;2023-09-08T17:00:24;30.50;38.50
43991;DHT22;29654;50.784;20.604;2023-09-08T17:05:27;30.20;38.70
43991;DHT22;29654;50.784;20.604;2023-09-08T17:10:31;29.90;39.00
43991;DHT22;29654;50.784;20.604;2023-09-08T17:15:35;29.60;39.20
43991;DHT22;29654;50.784;20.604;2023-09-08T17:20:38;29.30;39.40
43991;DHT22;29654;50.784;20.604;2023-09-08T17:25:42;29.00;39.80
43991;DHT22;29654;50.784;20.604;2023-09-08T17:30:45;28.70;40.00
43991;DHT22;29654;50.784;20.604;2023-09-08T17:35:48;28.50;40.20
43991;DHT22;29654;50.784;20.604;2023-09-08T17:40:52;28.20;40.40
43991;DHT22;29654;50.784;20.604;2023-09-08T17:45:55;27.90;40.70
43991;DHT22;29654;50.784;20.604;2023-09-08T17:50:58;27.70;41.00
43991;DHT22;29654;50.784;20.604;2023-09-08T17:56:01;27.40;41.20
43991;DHT22;29654;50.784;20.604;2023-09-08T18:01:04;27.20;41.60
43991;DHT22;29654;50.784;20.604;2023-09-08T18:06:07;27.00;41.70
43991;DHT22;29654;50.784;20.604;2023-09-08T18:11:11;26.80;42.00
43991;DHT22;29654;50.784;20.604;2023-09-08T18:16:15;26.60;42.40
43991;DHT22;29654;50.784;20.604;2023-09-08T18:21:17;26.40;42.50
43991;DHT22;29654;50.784;20.604;2023-09-08T18:26:21;26.20;42.80
43991;DHT22;29654;50.784;20.604;2023-09-08T18:31:24;26.00;43.10
43991;DHT22;29654;50.784;20.604;2023-09-08T18:36:29;25.80;43.10
43991;DHT22;29654;50.784;20.604;2023-09-08T18:41:33;25.70;43.40
43991;DHT22;29654;50.784;20.604;2023-09-08T18:46:36;25.50;43.70
43991;DHT22;29654;50.784;20.604;2023-09-08T18:51:39;25.40;43.70
43991;DHT22;29654;50.784;20.604;2023-09-08T18:56:43;25.20;44.00
43991;DHT22;29654;50.784;20.604;2023-09-08T19:01:46;25.10;44.30
43991;DHT22;29654;50.784;20.604;2023-09-08T19:06:48;24.90;44.30
43991;DHT22;29654;50.784;20.604;2023-09-08T19:11:52;24.90;44.60
43991;DHT22;29654;50.784;20.604;2023-09-08T19:16:55;24.70;44.80
43991;DHT22;29654;50.784;20.604;2023-09-08T19:21:58;24.60;44.80
43991;DHT22;29654;50.784;20.604;2023-09-08T19:27:02;24.50;45.10
43991;DHT22;29654;50.784;20.604;2023-09-08T19:32:06;24.40;45.40
43991;DHT22;29654;50.784;20.604;2023-09-08T19:37:10;24.30;45.50
43991;DHT22;29654;50.784;20.604;2023-09-08T19:42:14;24.20;45.60
43991;DHT22;29654;50.784;20.604;2023-09-08T19:47:18;24.10;45.80
43991;DHT22;29654;50.784;20.604;2023-09-08T19:52:21;24.10;45.90
43991;DHT22;29654;50.784;20.604;2023-09-08T19:57:25;24.00;45.90
43991;DHT22;29654;50.784;20.604;2023-09-08T20:02:28;23.90;46.10
43991;DHT22;29654;50.784;20.604;2023-09-08T20:07:31;23.80;46.10
43991;DHT22;29654;50.784;20.604;2023-09-08T20:12:36;23.80;46.20
43991;DHT22;29654;50.784;20.604;2023-09-08T20:17:39;23.70;46.60
43991;DHT22;29654;50.784;20.604;2023-09-08T20:22:43;23.60;46.50
43991;DHT22;29654;50.784;20.604;2023-09-08T20:27:47;23.50;46.60
43991;DHT22;29654;50.784;20.604;2023-09-08T20:32:50;23.40;46.80
43991;DHT22;29654;50.784;20.604;2023-09-08T20:37:52;23.30;46.80
43991;DHT22;29654;50.784;20.604;2023-09-08T20:42:57;23.30;46.90
43991;DHT22;29654;50.784;20.604;2023-09-08T20:48:00;23.20;47.10
43991;DHT22;29654;50.784;20.604;2023-09-08T20:53:03;23.10;47.10
43991;DHT22;29654;50.784;20.604;2023-09-08T20:58:07;23.00;47.20
43991;DHT22;29654;50.784;20.604;2023-09-08T21:03:10;23.00;47.40
43991;DHT22;29654;50.784;20.604;2023-09-08T21:08:13;23.00;47.50
43991;DHT22;29654;50.784;20.604;2023-09-08T21:13:17;22.90;47.50
43991;DHT22;29654;50.784;20.604;2023-09-08T21:18:20;22.80;47.80
43991;DHT22;29654;50.784;20.604;2023-09-08T21:23:25;22.70;47.80
43991;DHT22;29654;50.784;20.604;2023-09-08T21:28:30;22.70;47.90
43991;DHT22;29654;50.784;20.604;2023-09-08T21:33:33;22.60;48.10
43991;DHT22;29654;50.784;20.604;2023-09-08T21:38:37;22.60;48.10
43991;DHT22;29654;50.784;20.604;2023-09-08T21:43:44;22.50;48.20
43991;DHT22;29654;50.784;20.604;2023-09-08T21:48:47;22.50;48.40
43991;DHT22;29654;50.784;20.604;2023-09-08T21:53:50;22.40;48.30
43991;DHT22;29654;50.784;20.604;2023-09-08T21:58:56;22.30;48.30
43991;DHT22;29654;50.784;20.604;2023-09-08T22:04:00;22.30;48.40
43991;DHT22;29654;50.784;20.604;2023-09-08T22:09:04;22.20;48.30
43991;DHT22;29654;50.784;20.604;2023-09-08T22:14:08;22.20;48.50
43991;DHT22;29654;50.784;20.604;2023-09-08T22:19:11;22.10;48.50
43991;DHT22;29654;50.784;20.604;2023-09-08T22:24:14;22.00;48.40
43991;DHT22;29654;50.784;20.604;2023-09-08T22:29:19;22.00;48.50
43991;DHT22;29654;50.784;20.604;2023-09-08T22:34:24;21.90;48.80
43991;DHT22;29654;50.784;20.604;2023-09-08T22:39:27;21.80;48.70
43991;DHT22;29654;50.784;20.604;2023-09-08T22:44:32;21.70;48.70
43991;DHT22;29654;50.784;20.604;2023-09-08T22:49:35;21.70;49.00
43991;DHT22;29654;50.784;20.604;2023-09-08T22:54:38;21.60;48.90
43991;DHT22;29654;50.784;20.604;2023-09-08T22:59:43;21.50;48.90
43991;DHT22;29654;50.784;20.604;2023-09-08T23:04:46;21.50;49.20
43991;DHT22;29654;50.784;20.604;2023-09-08T23:09:49;21.40;49.20
43991;DHT22;29654;50.784;20.604;2023-09-08T23:14:53;21.30;49.20
43991;DHT22;29654;50.784;20.604;2023-09-08T23:19:57;21.30;49.40
43991;DHT22;29654;50.784;20.604;2023-09-08T23:25:01;21.20;49.40
43991;DHT22;29654;50.784;20.604;2023-09-08T23:30:07;21.20;49.50
43991;DHT22;29654;50.784;20.604;2023-09-08T23:35:12;21.10;49.80
43991;DHT22;29654;50.784;20.604;2023-09-08T23:40:16;21.10;49.60
43991;DHT22;29654;50.784;20.604;2023-09-08T23:45:20;21.00;49.60
43991;DHT22;29654;50.784;20.604;2023-09-08T23:50:53;21.00;49.70
43991;DHT22;29654;50.784;20.604;2023-09-08T23:56:00;20.90;50.40
